sensor_id;sensor_type;location;lat;lon;timestamp;temperature;humidity
15951;DHT22;8074;48.112;11.570;2022-10-17T00:01:19;12.00;99.90
15951;DHT22;8074;48.112;11.570;2022-10-17T00:03:46;12.00;99.90
15951;DHT22;8074;48.112;11.570;2022-10-17T00:06:15;12.10;99.90
15951;DHT22;8074;48.112;11.570;2022-10-17T00:08:42;12.10;99.90
15951;DHT22;8074;48.112;11.570;2022-10-17T00:11:13;12.00;99.90
15951;DHT22;8074;48.112;11.570;2022-10-17T00:13:40;12.00;99.90
15951;DHT22;8074;48.112;11.570;2022-10-17T00:16:07;12.00;99.90
15951;DHT22;8074;48.112;11.570;2022-10-17T00:18:34;11.90;99.90
15951;DHT22;8074;48.112;11.570;2022-10-17T00:21:01;11.80;99.90
15951;DHT22;8074;48.112;11.570;2022-10-17T00:23:30;11.80;99.90
15951;DHT22;8074;48.112;11.570;2022-10-17T00:25:58;11.90;99.90
15951;DHT22;8074;48.112;11.570;2022-10-17T00:28:25;11.80;99.90
15951;DHT22;8074;48.112;11.570;2022-10-17T00:30:55;11.90;99.90
15951;DHT22;8074;48.112;11.570;2022-10-17T00:33:22;11.90;99.90
15951;DHT22;8074;48.112;11.570;2022-10-17T00:35:49;11.90;99.90
15951;DHT22;8074;48.112;11.570;2022-10-17T00:38:16;11.70;99.90
15951;DHT22;8074;48.112;11.570;2022-10-17T00:40:44;11.60;99.90
15951;DHT22;8074;48.112;11.570;2022-10-17T00:43:14;11.40;99.90
15951;DHT22;8074;48.112;11.570;2022-10-17T00:45:42;11.40;99.90
15951;DHT22;8074;48.112;11.570;2022-10-17T00:48:10;11.60;99.90
15951;DHT22;8074;48.112;11.570;2022-10-17T00:50:45;11.50;99.90
15951;DHT22;8074;48.112;11.570;2022-10-17T00:53:14;11.50;99.90
15951;DHT22;8074;48.112;11.570;2022-10-17T00:55:46;11.40;99.90
15951;DHT22;8074;48.112;11.570;2022-10-17T00:58:14;11.40;99.90
15951;DHT22;8074;48.112;11.570;2022-10-17T01:00:42;11.30;99.90
15951;DHT22;8074;48.112;11.570;2022-10-17T01:03:09;11.40;99.90
15951;DHT22;8074;48.112;11.570;2022-10-17T01:05:37;11.50;99.90
15951;DHT22;8074;48.112;11.570;2022-10-17T01:08:05;11.50;99.90
15951;DHT22;8074;48.112;11.570;2022-10-17T01:10:38;11.50;99.90
15951;DHT22;8074;48.112;11.570;2022-10-17T01:13:12;11.60;99.90
15951;DHT22;8074;48.112;11.570;2022-10-17T01:15:51;11.60;99.90
15951;DHT22;8074;48.112;11.570;2022-10-17T01:18:30;11.60;99.90
15951;DHT22;8074;48.112;11.570;2022-10-17T01:21:28;11.50;99.90
15951;DHT22;8074;48.112;11.570;2022-10-17T01:24:19;11.50;99.90
15951;DHT22;8074;48.112;11.570;2022-10-17T01:26:58;11.50;99.90
15951;DHT22;8074;48.112;11.570;2022-10-17T01:29:46;11.50;99.90
15951;DHT22;8074;48.112;11.570;2022-10-17T01:32:20;11.50;99.90
15951;DHT22;8074;48.112;11.570;2022-10-17T01:34:53;11.30;99.90
15951;DHT22;8074;48.112;11.570;2022-10-17T01:37:27;11.40;99.90
15951;DHT22;8074;48.112;11.570;2022-10-17T01:40:00;11.50;99.90
15951;DHT22;8074;48.112;11.570;2022-10-17T01:42:32;11.50;99.90
15951;DHT22;8074;48.112;11.570;2022-10-17T01:45:06;11.50;99.90
15951;DHT22;8074;48.112;11.570;2022-10-17T01:47:37;11.60;99.90
15951;DHT22;8074;48.112;11.570;2022-10-17T01:50:09;11.50;99.90
15951;DHT22;8074;48.112;11.570;2022-10-17T01:52:41;11.20;99.90
15951;DHT22;8074;48.112;11.570;2022-10-17T01:55:13;11.00;99.90
15951;DHT22;8074;48.112;11.570;2022-10-17T01:57:43;10.90;99.90
15951;DHT22;8074;48.112;11.570;2022-10-17T02:00:15;10.80;99.90
15951;DHT22;8074;48.112;11.570;2022-10-17T02:02:47;11.00;99.90
15951;DHT22;8074;48.112;11.570;2022-10-17T02:05:16;11.20;99.90
15951;DHT22;8074;48.112;11.570;2022-10-17T02:07:44;11.20;99.90
15951;DHT22;8074;48.112;11.570;2022-10-17T02:10:17;11.20;99.90
15951;DHT22;8074;48.112;11.570;2022-10-17T02:12:49;11.00;99.90
15951;DHT22;8074;48.112;11.570;2022-10-17T02:15:31;10.90;99.90
15951;DHT22;8074;48.112;11.570;2022-10-17T02:18:13;10.80;99.90
15951;DHT22;8074;48.112;11.570;2022-10-17T02:20:49;10.90;99.90
15951;DHT22;8074;48.112;11.570;2022-10-17T02:23:21;11.10;99.90
15951;DHT22;8074;48.112;11.570;2022-10-17T02:25:54;11.10;99.90
15951;DHT22;8074;48.112;11.570;2022-10-17T02:28:30;11.10;99.90
15951;DHT22;8074;48.112;11.570;2022-10-17T02:31:02;11.10;99.90
15951;DHT22;8074;48.112;11.570;2022-10-17T02:33:33;11.10;99.90
15951;DHT22;8074;48.112;11.570;2022-10-17T02:36:05;11.00;99.90
15951;DHT22;8074;48.112;11.570;2022-10-17T02:38:34;10.90;99.90
15951;DHT22;8074;48.112;11.570;2022-10-17T02:41:03;10.90;99.90
15951;DHT22;8074;48.112;11.570;2022-10-17T02:43:33;10.70;99.90
15951;DHT22;8074;48.112;11.570;2022-10-17T02:46:00;10.90;99.90
15951;DHT22;8074;48.112;11.570;2022-10-17T02:48:33;10.90;99.90
15951;DHT22;8074;48.112;11.570;2022-10-17T02:51:06;10.70;99.90
15951;DHT22;8074;48.112;11.570;2022-10-17T02:53:38;10.60;99.90
15951;DHT22;8074;48.112;11.570;2022-10-17T02:56:13;10.70;99.90
15951;DHT22;8074;48.112;11.570;2022-10-17T02:58:42;10.70;99.90
15951;DHT22;8074;48.112;11.570;2022-10-17T03:01:12;10.70;99.90
15951;DHT22;8074;48.112;11.570;2022-10-17T03:03:40;10.60;99.90
15951;DHT22;8074;48.112;11.570;2022-10-17T03:06:07;10.60;99.90
15951;DHT22;8074;48.112;11.570;2022-10-17T03:08:34;10.60;99.90
15951;DHT22;8074;48.112;11.570;2022-10-17T03:11:01;10.60;99.90
15951;DHT22;8074;48.112;11.570;2022-10-17T03:13:28;10.60;99.90
15951;DHT22;8074;48.112;11.570;2022-10-17T03:15:55;10.40;99.90
15951;DHT22;8074;48.112;11.570;2022-10-17T03:18:22;10.50;99.90
15951;DHT22;8074;48.112;11.570;2022-10-17T03:20:51;10.40;99.90
15951;DHT22;8074;48.112;11.570;2022-10-17T03:23:17;10.40;99.90
15951;DHT22;8074;48.112;11.570;2022-10-17T03:25:44;10.40;99.90
15951;DHT22;8074;48.112;11.570;2022-10-17T03:28:11;10.40;99.90
15951;DHT22;8074;48.112;11.570;2022-10-17T03:30:38;10.50;99.90
15951;DHT22;8074;48.112;11.570;2022-10-17T03:33:05;10.50;99.90
15951;DHT22;8074;48.112;11.570;2022-10-17T03:35:32;10.40;99.90
15951;DHT22;8074;48.112;11.570;2022-10-17T03:38:00;10.30;99.90
15951;DHT22;8074;48.112;11.570;2022-10-17T03:40:27;10.40;99.90
15951;DHT22;8074;48.112;11.570;2022-10-17T03:42:54;10.30;99.90
15951;DHT22;8074;48.112;11.570;2022-10-17T03:45:21;10.30;99.90
15951;DHT22;8074;48.112;11.570;2022-10-17T03:47:48;10.20;99.90
15951;DHT22;8074;48.112;11.570;2022-10-17T03:50:15;10.20;99.90
15951;DHT22;8074;48.112;11.570;2022-10-17T03:52:45;10.10;99.90
15951;DHT22;8074;48.112;11.570;2022-10-17T03:55:14;10.20;99.90
15951;DHT22;8074;48.112;11.570;2022-10-17T03:57:41;10.30;99.90
15951;DHT22;8074;48.112;11.570;2022-10-17T04:00:09;10.20;99.90
15951;DHT22;8074;48.112;11.570;2022-10-17T04:02:36;10.20;99.90
15951;DHT22;8074;48.112;11.570;2022-10-17T04:05:03;10.00;99.90
15951;DHT22;8074;48.112;11.570;2022-10-17T04:07:30;10.00;99.90
15951;DHT22;8074;48.112;11.570;2022-10-17T04:09:57;9.90;99.90
15951;DHT22;8074;48.112;11.570;2022-10-17T04:12:25;10.10;99.90
15951;DHT22;8074;48.112;11.570;2022-10-17T04:14:52;10.30;99.90
15951;DHT22;8074;48.112;11.570;2022-10-17T04:17:19;10.20;99.90
15951;DHT22;8074;48.112;11.570;2022-10-17T04:19:47;10.20;99.90
15951;DHT22;8074;48.112;11.570;2022-10-17T04:22:14;10.20;99.90
15951;DHT22;8074;48.112;11.570;2022-10-17T04:24:41;9.90;99.90
15951;DHT22;8074;48.112;11.570;2022-10-17T04:27:09;10.10;99.90
15951;DHT22;8074;48.112;11.570;2022-10-17T04:29:37;10.40;99.90
15951;DHT22;8074;48.112;11.570;2022-10-17T04:32:04;10.60;99.90
15951;DHT22;8074;48.112;11.570;2022-10-17T04:34:31;10.20;99.90
15951;DHT22;8074;48.112;11.570;2022-10-17T04:36:58;10.00;99.90
15951;DHT22;8074;48.112;11.570;2022-10-17T04:39:25;10.10;99.90
15951;DHT22;8074;48.112;11.570;2022-10-17T04:41:52;10.20;99.90
15951;DHT22;8074;48.112;11.570;2022-10-17T04:44:20;10.00;99.90
15951;DHT22;8074;48.112;11.570;2022-10-17T04:46:48;9.90;99.90
15951;DHT22;8074;48.112;11.570;2022-10-17T04:49:15;10.00;99.90
15951;DHT22;8074;48.112;11.570;2022-10-17T04:51:41;10.10;99.90
15951;DHT22;8074;48.112;11.570;2022-10-17T04:54:08;10.00;99.90
15951;DHT22;8074;48.112;11.570;2022-10-17T04:56:35;9.70;99.90
15951;DHT22;8074;48.112;11.570;2022-10-17T04:59:02;9.70;99.90
15951;DHT22;8074;48.112;11.570;2022-10-17T05:01:29;9.80;99.90
15951;DHT22;8074;48.112;11.570;2022-10-17T05:03:57;9.80;99.90
15951;DHT22;8074;48.112;11.570;2022-10-17T05:06:25;9.90;99.90
15951;DHT22;8074;48.112;11.570;2022-10-17T05:08:53;9.80;99.90
15951;DHT22;8074;48.112;11.570;2022-10-17T05:11:23;9.90;99.90
15951;DHT22;8074;48.112;11.570;2022-10-17T05:13:52;9.80;99.90
15951;DHT22;8074;48.112;11.570;2022-10-17T05:16:20;9.80;99.90
15951;DHT22;8074;48.112;11.570;2022-10-17T05:18:48;9.90;99.90
15951;DHT22;8074;48.112;11.570;2022-10-17T05:21:17;9.70;99.90
15951;DHT22;8074;48.112;11.570;2022-10-17T05:23:44;9.70;99.90
15951;DHT22;8074;48.112;11.570;2022-10-17T05:26:11;9.70;99.90
15951;DHT22;8074;48.112;11.570;2022-10-17T05:28:37;9.60;99.90
15951;DHT22;8074;48.112;11.570;2022-10-17T05:31:06;9.60;99.90
15951;DHT22;8074;48.112;11.570;2022-10-17T05:33:34;9.80;99.90
15951;DHT22;8074;48.112;11.570;2022-10-17T05:36:01;9.90;99.90
15951;DHT22;8074;48.112;11.570;2022-10-17T05:38:30;9.80;99.90
15951;DHT22;8074;48.112;11.570;2022-10-17T05:40:58;9.80;99.90
15951;DHT22;8074;48.112;11.570;2022-10-17T05:43:26;9.80;99.90
15951;DHT22;8074;48.112;11.570;2022-10-17T05:45:53;9.90;99.90
15951;DHT22;8074;48.112;11.570;2022-10-17T05:48:21;9.80;99.90
15951;DHT22;8074;48.112;11.570;2022-10-17T05:50:48;9.80;99.90
15951;DHT22;8074;48.112;11.570;2022-10-17T05:53:15;9.80;99.90
15951;DHT22;8074;48.112;11.570;2022-10-17T05:55:44;9.60;99.90
15951;DHT22;8074;48.112;11.570;2022-10-17T05:58:11;9.50;99.90
15951;DHT22;8074;48.112;11.570;2022-10-17T06:00:37;9.70;99.90
15951;DHT22;8074;48.112;11.570;2022-10-17T06:03:04;9.70;99.90
15951;DHT22;8074;48.112;11.570;2022-10-17T06:05:34;9.80;99.90
15951;DHT22;8074;48.112;11.570;2022-10-17T06:08:01;10.00;99.90
15951;DHT22;8074;48.112;11.570;2022-10-17T06:10:27;10.10;99.90
15951;DHT22;8074;48.112;11.570;2022-10-17T06:12:56;10.00;99.90
15951;DHT22;8074;48.112;11.570;2022-10-17T06:15:23;9.90;99.90
15951;DHT22;8074;48.112;11.570;2022-10-17T06:17:50;9.80;99.90
15951;DHT22;8074;48.112;11.570;2022-10-17T06:20:17;9.90;99.90
15951;DHT22;8074;48.112;11.570;2022-10-17T06:22:43;10.00;99.90
15951;DHT22;8074;48.112;11.570;2022-10-17T06:25:11;10.20;99.90
15951;DHT22;8074;48.112;11.570;2022-10-17T06:27:37;10.20;99.90
15951;DHT22;8074;48.112;11.570;2022-10-17T06:30:07;10.20;99.90
15951;DHT22;8074;48.112;11.570;2022-10-17T06:32:34;10.30;99.90
15951;DHT22;8074;48.112;11.570;2022-10-17T06:35:01;10.40;99.90
15951;DHT22;8074;48.112;11.570;2022-10-17T06:37:30;10.50;99.90
15951;DHT22;8074;48.112;11.570;2022-10-17T06:39:57;10.60;99.90
15951;DHT22;8074;48.112;11.570;2022-10-17T06:42:24;11.00;99.90
15951;DHT22;8074;48.112;11.570;2022-10-17T06:44:51;11.30;99.90
15951;DHT22;8074;48.112;11.570;2022-10-17T06:47:19;11.70;99.90
15951;DHT22;8074;48.112;11.570;2022-10-17T06:49:46;12.10;99.90
15951;DHT22;8074;48.112;11.570;2022-10-17T06:52:13;12.80;99.90
15951;DHT22;8074;48.112;11.570;2022-10-17T06:54:41;13.20;99.90
15951;DHT22;8074;48.112;11.570;2022-10-17T06:57:08;13.60;99.90
15951;DHT22;8074;48.112;11.570;2022-10-17T06:59:36;13.30;99.90
15951;DHT22;8074;48.112;11.570;2022-10-17T07:02:07;13.80;99.90
15951;DHT22;8074;48.112;11.570;2022-10-17T07:05:26;14.30;99.90
15951;DHT22;8074;48.112;11.570;2022-10-17T07:07:47;15.10;99.90
15951;DHT22;8074;48.112;11.570;2022-10-17T07:10:16;15.60;99.90
15951;DHT22;8074;48.112;11.570;2022-10-17T07:13:07;15.50;99.90
15951;DHT22;8074;48.112;11.570;2022-10-17T07:15:45;15.80;99.90
15951;DHT22;8074;48.112;11.570;2022-10-17T07:18:22;17.10;99.90
15951;DHT22;8074;48.112;11.570;2022-10-17T07:20:53;17.70;99.90
15951;DHT22;8074;48.112;11.570;2022-10-17T07:23:20;17.30;99.90
15951;DHT22;8074;48.112;11.570;2022-10-17T07:25:50;17.80;99.90
15951;DHT22;8074;48.112;11.570;2022-10-17T07:28:17;17.50;99.90
15951;DHT22;8074;48.112;11.570;2022-10-17T07:30:44;17.20;99.90
15951;DHT22;8074;48.112;11.570;2022-10-17T07:33:11;17.00;99.90
15951;DHT22;8074;48.112;11.570;2022-10-17T07:35:38;17.10;99.90
15951;DHT22;8074;48.112;11.570;2022-10-17T07:38:08;17.60;99.90
15951;DHT22;8074;48.112;11.570;2022-10-17T07:40:34;17.80;99.90
15951;DHT22;8074;48.112;11.570;2022-10-17T07:45:42;17.00;99.90
15951;DHT22;8074;48.112;11.570;2022-10-17T07:48:09;16.60;99.90
15951;DHT22;8074;48.112;11.570;2022-10-17T07:50:35;16.50;99.90
15951;DHT22;8074;48.112;11.570;2022-10-17T07:53:02;16.60;99.90
15951;DHT22;8074;48.112;11.570;2022-10-17T07:55:33;16.70;99.90
15951;DHT22;8074;48.112;11.570;2022-10-17T07:58:00;16.90;99.90
15951;DHT22;8074;48.112;11.570;2022-10-17T08:00:27;17.10;99.90
15951;DHT22;8074;48.112;11.570;2022-10-17T08:02:54;17.10;99.90
15951;DHT22;8074;48.112;11.570;2022-10-17T08:05:21;17.10;99.90
15951;DHT22;8074;48.112;11.570;2022-10-17T08:07:48;16.90;99.90
15951;DHT22;8074;48.112;11.570;2022-10-17T08:10:15;16.90;99.90
15951;DHT22;8074;48.112;11.570;2022-10-17T08:12:44;17.10;99.90
15951;DHT22;8074;48.112;11.570;2022-10-17T08:15:11;17.40;99.90
15951;DHT22;8074;48.112;11.570;2022-10-17T08:17:42;17.60;99.90
15951;DHT22;8074;48.112;11.570;2022-10-17T08:20:14;18.30;99.90
15951;DHT22;8074;48.112;11.570;2022-10-17T08:22:42;18.90;99.90
15951;DHT22;8074;48.112;11.570;2022-10-17T08:25:09;19.30;99.90
15951;DHT22;8074;48.112;11.570;2022-10-17T08:27:36;19.60;99.90
15951;DHT22;8074;48.112;11.570;2022-10-17T08:30:07;19.60;99.90
15951;DHT22;8074;48.112;11.570;2022-10-17T08:32:34;19.70;99.90
15951;DHT22;8074;48.112;11.570;2022-10-17T08:35:00;20.10;99.90
15951;DHT22;8074;48.112;11.570;2022-10-17T08:37:27;20.40;99.90
15951;DHT22;8074;48.112;11.570;2022-10-17T08:39:55;21.30;99.90
15951;DHT22;8074;48.112;11.570;2022-10-17T08:43:06;22.00;99.90
15951;DHT22;8074;48.112;11.570;2022-10-17T08:45:41;22.50;99.90
15951;DHT22;8074;48.112;11.570;2022-10-17T08:48:15;22.50;99.90
15951;DHT22;8074;48.112;11.570;2022-10-17T08:50:47;23.10;99.90
15951;DHT22;8074;48.112;11.570;2022-10-17T08:53:18;23.80;99.90
15951;DHT22;8074;48.112;11.570;2022-10-17T08:55:48;24.20;99.90
15951;DHT22;8074;48.112;11.570;2022-10-17T08:58:20;24.50;99.90
15951;DHT22;8074;48.112;11.570;2022-10-17T09:00:58;24.20;99.90
15951;DHT22;8074;48.112;11.570;2022-10-17T09:03:37;24.20;99.90
15951;DHT22;8074;48.112;11.570;2022-10-17T09:06:17;23.50;99.90
15951;DHT22;8074;48.112;11.570;2022-10-17T09:08:56;23.60;99.90
15951;DHT22;8074;48.112;11.570;2022-10-17T09:11:39;24.10;99.90
15951;DHT22;8074;48.112;11.570;2022-10-17T09:14:20;24.20;99.90
15951;DHT22;8074;48.112;11.570;2022-10-17T09:17:02;24.00;99.90
15951;DHT22;8074;48.112;11.570;2022-10-17T09:19:35;24.30;99.90
15951;DHT22;8074;48.112;11.570;2022-10-17T09:22:09;24.80;99.90
15951;DHT22;8074;48.112;11.570;2022-10-17T09:24:41;25.60;99.90
15951;DHT22;8074;48.112;11.570;2022-10-17T09:27:17;25.80;99.90
15951;DHT22;8074;48.112;11.570;2022-10-17T09:29:49;25.50;99.90
15951;DHT22;8074;48.112;11.570;2022-10-17T09:32:22;25.50;99.90
15951;DHT22;8074;48.112;11.570;2022-10-17T09:34:51;25.40;99.90
15951;DHT22;8074;48.112;11.570;2022-10-17T09:37:23;26.40;99.90
15951;DHT22;8074;48.112;11.570;2022-10-17T09:39:50;25.50;99.90
15951;DHT22;8074;48.112;11.570;2022-10-17T09:42:18;25.80;99.90
15951;DHT22;8074;48.112;11.570;2022-10-17T09:44:49;27.20;99.90
15951;DHT22;8074;48.112;11.570;2022-10-17T09:47:27;28.60;99.90
15951;DHT22;8074;48.112;11.570;2022-10-17T09:49:57;29.10;99.90
15951;DHT22;8074;48.112;11.570;2022-10-17T09:52:28;27.80;99.90
15951;DHT22;8074;48.112;11.570;2022-10-17T09:54:59;27.20;99.90
15951;DHT22;8074;48.112;11.570;2022-10-17T09:57:27;27.40;99.90
15951;DHT22;8074;48.112;11.570;2022-10-17T10:00:00;27.70;99.90
15951;DHT22;8074;48.112;11.570;2022-10-17T10:02:30;27.00;99.90
15951;DHT22;8074;48.112;11.570;2022-10-17T10:05:02;27.20;99.90
15951;DHT22;8074;48.112;11.570;2022-10-17T10:07:31;26.30;99.90
15951;DHT22;8074;48.112;11.570;2022-10-17T10:09:59;26.40;99.90
15951;DHT22;8074;48.112;11.570;2022-10-17T10:12:30;26.30;99.90
15951;DHT22;8074;48.112;11.570;2022-10-17T10:14:58;25.90;99.90
15951;DHT22;8074;48.112;11.570;2022-10-17T10:17:39;26.10;99.90
15951;DHT22;8074;48.112;11.570;2022-10-17T10:20:29;26.60;99.90
15951;DHT22;8074;48.112;11.570;2022-10-17T10:23:20;26.00;99.90
15951;DHT22;8074;48.112;11.570;2022-10-17T10:25:54;26.30;99.90
15951;DHT22;8074;48.112;11.570;2022-10-17T10:28:24;26.80;99.90
15951;DHT22;8074;48.112;11.570;2022-10-17T10:30:53;27.20;99.90
15951;DHT22;8074;48.112;11.570;2022-10-17T10:33:26;27.40;99.90
15951;DHT22;8074;48.112;11.570;2022-10-17T10:35:57;27.70;99.90
15951;DHT22;8074;48.112;11.570;2022-10-17T10:38:26;27.90;99.90
15951;DHT22;8074;48.112;11.570;2022-10-17T10:41:02;27.50;99.90
15951;DHT22;8074;48.112;11.570;2022-10-17T10:43:33;26.70;99.90
15951;DHT22;8074;48.112;11.570;2022-10-17T10:46:16;26.00;99.90
15951;DHT22;8074;48.112;11.570;2022-10-17T10:48:53;25.90;99.90
15951;DHT22;8074;48.112;11.570;2022-10-17T10:51:25;25.40;99.90
15951;DHT22;8074;48.112;11.570;2022-10-17T10:53:58;25.40;99.90
15951;DHT22;8074;48.112;11.570;2022-10-17T10:56:29;25.00;99.90
15951;DHT22;8074;48.112;11.570;2022-10-17T10:59:03;24.80;99.90
15951;DHT22;8074;48.112;11.570;2022-10-17T11:01:40;24.80;99.90
15951;DHT22;8074;48.112;11.570;2022-10-17T11:04:30;24.90;99.90
15951;DHT22;8074;48.112;11.570;2022-10-17T11:07:05;25.30;99.90
15951;DHT22;8074;48.112;11.570;2022-10-17T11:09:44;25.30;99.90
15951;DHT22;8074;48.112;11.570;2022-10-17T11:12:16;25.30;99.90
15951;DHT22;8074;48.112;11.570;2022-10-17T11:14:50;24.90;99.90
15951;DHT22;8074;48.112;11.570;2022-10-17T11:17:27;24.90;99.90
15951;DHT22;8074;48.112;11.570;2022-10-17T11:20:09;26.20;99.90
15951;DHT22;8074;48.112;11.570;2022-10-17T11:22:40;27.20;99.90
15951;DHT22;8074;48.112;11.570;2022-10-17T11:25:20;27.50;99.90
15951;DHT22;8074;48.112;11.570;2022-10-17T11:27:48;28.00;99.90
15951;DHT22;8074;48.112;11.570;2022-10-17T11:30:16;28.30;99.90
15951;DHT22;8074;48.112;11.570;2022-10-17T11:32:45;29.60;99.90
15951;DHT22;8074;48.112;11.570;2022-10-17T11:35:19;29.60;99.90
15951;DHT22;8074;48.112;11.570;2022-10-17T11:37:50;28.50;99.90
15951;DHT22;8074;48.112;11.570;2022-10-17T11:40:21;27.20;99.90
15951;DHT22;8074;48.112;11.570;2022-10-17T11:42:57;26.40;99.90
15951;DHT22;8074;48.112;11.570;2022-10-17T11:45:27;26.50;99.90
15951;DHT22;8074;48.112;11.570;2022-10-17T11:48:00;27.70;99.90
15951;DHT22;8074;48.112;11.570;2022-10-17T12:01:08;28.40;99.90
15951;DHT22;8074;48.112;11.570;2022-10-17T12:03:49;27.30;99.90
15951;DHT22;8074;48.112;11.570;2022-10-17T12:06:27;27.80;99.90
15951;DHT22;8074;48.112;11.570;2022-10-17T12:09:00;28.70;99.90
15951;DHT22;8074;48.112;11.570;2022-10-17T12:11:39;28.70;99.90
15951;DHT22;8074;48.112;11.570;2022-10-17T12:14:36;29.50;99.90
15951;DHT22;8074;48.112;11.570;2022-10-17T12:17:19;29.80;99.90
15951;DHT22;8074;48.112;11.570;2022-10-17T12:19:47;31.40;99.90
15951;DHT22;8074;48.112;11.570;2022-10-17T12:22:20;32.30;99.90
15951;DHT22;8074;48.112;11.570;2022-10-17T12:24:56;32.70;99.90
15951;DHT22;8074;48.112;11.570;2022-10-17T12:27:38;33.20;99.90
15951;DHT22;8074;48.112;11.570;2022-10-17T12:30:27;32.70;99.90
15951;DHT22;8074;48.112;11.570;2022-10-17T12:33:03;32.00;99.90
15951;DHT22;8074;48.112;11.570;2022-10-17T12:35:33;33.20;99.90
15951;DHT22;8074;48.112;11.570;2022-10-17T12:38:29;34.30;99.90
15951;DHT22;8074;48.112;11.570;2022-10-17T12:41:10;34.00;99.80
15951;DHT22;8074;48.112;11.570;2022-10-17T12:43:55;34.30;98.10
15951;DHT22;8074;48.112;11.570;2022-10-17T12:46:56;35.20;97.70
15951;DHT22;8074;48.112;11.570;2022-10-17T12:49:42;36.50;96.40
15951;DHT22;8074;48.112;11.570;2022-10-17T12:52:24;36.30;94.90
15951;DHT22;8074;48.112;11.570;2022-10-17T12:55:04;36.80;94.40
15951;DHT22;8074;48.112;11.570;2022-10-17T12:57:37;38.10;93.60
15951;DHT22;8074;48.112;11.570;2022-10-17T13:00:14;38.60;92.20
15951;DHT22;8074;48.112;11.570;2022-10-17T13:02:42;39.50;91.40
15951;DHT22;8074;48.112;11.570;2022-10-17T13:05:15;39.50;89.90
15951;DHT22;8074;48.112;11.570;2022-10-17T13:07:44;40.00;87.40
15951;DHT22;8074;48.112;11.570;2022-10-17T13:10:20;40.40;81.30
15951;DHT22;8074;48.112;11.570;2022-10-17T13:13:09;39.50;79.80
15951;DHT22;8074;48.112;11.570;2022-10-17T13:15:54;39.40;78.70
15951;DHT22;8074;48.112;11.570;2022-10-17T13:18:34;39.70;75.80
15951;DHT22;8074;48.112;11.570;2022-10-17T13:21:14;40.60;74.50
15951;DHT22;8074;48.112;11.570;2022-10-17T13:23:41;40.40;73.60
15951;DHT22;8074;48.112;11.570;2022-10-17T13:26:13;39.90;73.90
15951;DHT22;8074;48.112;11.570;2022-10-17T13:28:41;36.70;76.50
15951;DHT22;8074;48.112;11.570;2022-10-17T13:31:26;36.70;77.90
15951;DHT22;8074;48.112;11.570;2022-10-17T13:33:56;37.90;77.30
15951;DHT22;8074;48.112;11.570;2022-10-17T13:36:25;37.80;75.60
15951;DHT22;8074;48.112;11.570;2022-10-17T13:38:53;37.50;75.70
15951;DHT22;8074;48.112;11.570;2022-10-17T13:41:24;36.70;78.70
15951;DHT22;8074;48.112;11.570;2022-10-17T13:43:55;37.10;78.70
15951;DHT22;8074;48.112;11.570;2022-10-17T13:46:27;38.70;78.30
15951;DHT22;8074;48.112;11.570;2022-10-17T13:48:55;40.20;75.50
15951;DHT22;8074;48.112;11.570;2022-10-17T13:51:24;40.10;74.70
15951;DHT22;8074;48.112;11.570;2022-10-17T13:53:51;40.80;72.70
15951;DHT22;8074;48.112;11.570;2022-10-17T13:56:20;40.00;74.00
15951;DHT22;8074;48.112;11.570;2022-10-17T13:58:51;39.90;71.50
15951;DHT22;8074;48.112;11.570;2022-10-17T14:01:19;41.00;71.00
15951;DHT22;8074;48.112;11.570;2022-10-17T14:03:47;41.20;69.10
15951;DHT22;8074;48.112;11.570;2022-10-17T14:06:17;41.30;68.70
15951;DHT22;8074;48.112;11.570;2022-10-17T14:08:52;40.90;67.50
15951;DHT22;8074;48.112;11.570;2022-10-17T14:11:24;40.50;67.60
15951;DHT22;8074;48.112;11.570;2022-10-17T14:13:52;40.00;67.40
15951;DHT22;8074;48.112;11.570;2022-10-17T14:16:21;39.80;68.80
15951;DHT22;8074;48.112;11.570;2022-10-17T14:18:49;39.60;68.50
15951;DHT22;8074;48.112;11.570;2022-10-17T14:21:20;38.50;69.90
15951;DHT22;8074;48.112;11.570;2022-10-17T14:23:50;37.90;70.60
15951;DHT22;8074;48.112;11.570;2022-10-17T14:26:19;35.80;72.50
15951;DHT22;8074;48.112;11.570;2022-10-17T14:28:50;35.30;74.40
15951;DHT22;8074;48.112;11.570;2022-10-17T14:31:29;36.90;73.60
15951;DHT22;8074;48.112;11.570;2022-10-17T14:33:58;36.80;72.50
15951;DHT22;8074;48.112;11.570;2022-10-17T14:36:31;37.10;74.50
15951;DHT22;8074;48.112;11.570;2022-10-17T14:39:02;37.90;73.20
15951;DHT22;8074;48.112;11.570;2022-10-17T14:41:31;38.60;72.20
15951;DHT22;8074;48.112;11.570;2022-10-17T14:44:03;38.90;71.30
15951;DHT22;8074;48.112;11.570;2022-10-17T14:46:31;38.60;71.70
15951;DHT22;8074;48.112;11.570;2022-10-17T14:49:06;36.90;72.90
15951;DHT22;8074;48.112;11.570;2022-10-17T14:51:33;36.20;72.80
15951;DHT22;8074;48.112;11.570;2022-10-17T14:54:13;35.90;73.70
15951;DHT22;8074;48.112;11.570;2022-10-17T14:56:49;35.60;74.90
15951;DHT22;8074;48.112;11.570;2022-10-17T14:59:16;35.90;75.20
15951;DHT22;8074;48.112;11.570;2022-10-17T15:01:47;35.70;74.20
15951;DHT22;8074;48.112;11.570;2022-10-17T15:04:14;35.30;75.80
15951;DHT22;8074;48.112;11.570;2022-10-17T15:06:41;34.60;76.30
15951;DHT22;8074;48.112;11.570;2022-10-17T15:09:10;33.50;78.00
15951;DHT22;8074;48.112;11.570;2022-10-17T15:11:37;33.20;78.80
15951;DHT22;8074;48.112;11.570;2022-10-17T15:14:06;33.30;79.20
15951;DHT22;8074;48.112;11.570;2022-10-17T15:16:33;33.20;79.10
15951;DHT22;8074;48.112;11.570;2022-10-17T15:19:01;32.40;80.00
15951;DHT22;8074;48.112;11.570;2022-10-17T15:21:28;32.60;80.90
15951;DHT22;8074;48.112;11.570;2022-10-17T15:23:55;33.10;80.20
15951;DHT22;8074;48.112;11.570;2022-10-17T15:26:25;32.80;79.80
15951;DHT22;8074;48.112;11.570;2022-10-17T15:28:55;32.60;79.60
15951;DHT22;8074;48.112;11.570;2022-10-17T15:31:23;31.70;81.70
15951;DHT22;8074;48.112;11.570;2022-10-17T15:33:50;30.10;84.70
15951;DHT22;8074;48.112;11.570;2022-10-17T15:36:19;30.20;85.70
15951;DHT22;8074;48.112;11.570;2022-10-17T15:38:47;29.20;88.30
15951;DHT22;8074;48.112;11.570;2022-10-17T15:41:14;28.70;91.40
15951;DHT22;8074;48.112;11.570;2022-10-17T15:43:42;28.00;92.80
15951;DHT22;8074;48.112;11.570;2022-10-17T15:46:11;26.70;94.30
15951;DHT22;8074;48.112;11.570;2022-10-17T15:48:39;25.60;96.00
15951;DHT22;8074;48.112;11.570;2022-10-17T15:51:06;24.50;97.30
15951;DHT22;8074;48.112;11.570;2022-10-17T15:53:33;24.00;99.90
15951;DHT22;8074;48.112;11.570;2022-10-17T15:56:01;23.50;99.90
15951;DHT22;8074;48.112;11.570;2022-10-17T15:58:34;23.40;99.90
15951;DHT22;8074;48.112;11.570;2022-10-17T16:01:04;23.30;99.90
15951;DHT22;8074;48.112;11.570;2022-10-17T16:03:31;23.20;99.90
15951;DHT22;8074;48.112;11.570;2022-10-17T16:05:58;23.10;99.90
15951;DHT22;8074;48.112;11.570;2022-10-17T16:08:25;23.00;99.90
15951;DHT22;8074;48.112;11.570;2022-10-17T16:10:53;22.80;99.90